Detall de PIREP

Printer-friendly versionPDF version

[2013/09/30 07:14:00]
Flight IATA:CT3206
Pilot Number:012
Company ICAO:CAT
Aircraft Type:B738/F
PAX:160
Departing Airport: LEPA
Destination Airport: LZIB
Alternate Airport:LHBP
Online: VATSIM
Route:MEROS/M080F360 UN853 LUMAS UM985 ABN UZ713 FER UM859 DOL/M080F370 UP63 EBITI UP735 ZAG UM986 BALUX Y34 XOMBA
Flight Level:F370
No Slew and time accel
No pause
Crash detect
Detect pilot in Cockpit between each 30 and 45 minutes
07:14 Zero fuel Weight: 124503 Lbs, Fuel Weight: 18988 Lbs
07:14 VATSIM:LEPA 300700Z 00000KT 9999 FEW025 19/17 Q1008 NOSIG
07:14 VATSIM:LZIB 300700Z 05007KT CAVOK 09/05 Q1011 NOSIG
07:15 VOICE CATALONIAN
07:19 Parking Brakes off
07:24 Take-off
07:24 Take off Weight: 142781 Lbs
07:24 Wind: 000º @ 000 Knots Heading: 239º
07:24 POS N39º 33´ 09´´ E002º 43´ 18´´
07:24 Gear Up: 165 Knots
07:24 Flaps:3 at 165 Knots
07:24 Flaps:2 at 195 Knots
07:24 Flaps:0 at 206 Knots
07:39 Wind:302º@075 Knots Heading: 020º Ground Speed: 469 Knots Altitude 29849 ft
07:54 Wind:308º@104 Knots Heading: 062º Ground Speed: 516 Knots Altitude 35738 ft
08:09 Wind:309º@112 Knots Heading: 037º Ground Speed: 475 Knots Altitude 35685 ft
08:24 Wind:332º@017 Knots Heading: 073º Ground Speed: 468 Knots Altitude 35692 ft
08:39 Wind:090º@008 Knots Heading: 067º Ground Speed: 450 Knots Altitude 35708 ft
08:54 Wind:196º@029 Knots Heading: 061º Ground Speed: 476 Knots Altitude 35698 ft
09:09 Wind:221º@035 Knots Heading: 053º Ground Speed: 489 Knots Altitude 35849 ft
09:13 TOC
09:13 Fuel Weight: 6494 Lb
09:20 TOD
09:20 Fuel Weight: 5893 Lb
09:24 Wind:241º@036 Knots Heading: 054º Ground Speed: 468 Knots Altitude 28451 ft
09:38 Flaps:1 at 256 Knots
09:39 Wind:098º@008 Knots Heading: 230º Ground Speed: 253 Knots Altitude 3264 ft
09:39 Flaps:2 at 222 Knots
09:39 Flaps:3 at 215 Knots
09:40 Flaps:4 at 179 Knots
09:40 Gear Down: 178 Knots
09:40 Flaps:5 at 147 Knots
09:41 Flaps:6 at 152 Knots
09:41 Flaps:7 at 144 Knots
09:45 TouchDown:Rate -268 ft/min Speed: 136 Knots
09:45 VATSIM:LZIB 300930Z 07007KT CAVOK 12/05 Q1011 NOSIG
09:45 Land
09:45 Wind:056º@008 Knots
09:45 Heading: 310º
09:45 Flight Duration: 02:21
09:45 Landing Weight: 129066 Lbs
09:45 POS N48º 10´ 02´´ E017º 13´ 01´´
09:48 Parking brakes on
09:48 Block to Block Duration: 02:29
09:48 Final Fuel: 4371 Lbls
09:48 Spent Fuel: 14616 Lbls
09:48 Flight Length: 1017 NM
09:48 TOD Land Length: 131 NM

Exportar CSV

Powered by Drupal - Modified by Danger4k